sensor_id;sensor_type;location;lat;lon;timestamp;P1;durP1;ratioP1;P2;durP2;ratioP2
31746;SDS011;18319;48.974;8.462;2023-04-24T00:00:53;4.13;;;0.60;;
31746;SDS011;18319;48.974;8.462;2023-04-24T00:03:21;2.08;;;0.40;;
31746;SDS011;18319;48.974;8.462;2023-04-24T00:05:48;1.48;;;0.50;;
31746;SDS011;18319;48.974;8.462;2023-04-24T00:08:16;1.55;;;0.30;;
31746;SDS011;18319;48.974;8.462;2023-04-24T00:10:43;0.50;;;0.50;;
31746;SDS011;18319;48.974;8.462;2023-04-24T00:13:10;1.50;;;0.47;;
31746;SDS011;18319;48.974;8.462;2023-04-24T00:15:37;1.58;;;0.40;;
31746;SDS011;18319;48.974;8.462;2023-04-24T00:18:04;1.95;;;0.43;;
31746;SDS011;18319;48.974;8.462;2023-04-24T00:20:31;0.65;;;0.35;;
31746;SDS011;18319;48.974;8.462;2023-04-24T00:22:58;1.33;;;0.40;;
31746;SDS011;18319;48.974;8.462;2023-04-24T00:25:26;1.73;;;0.50;;
31746;SDS011;18319;48.974;8.462;2023-04-24T00:27:53;0.30;;;0.30;;
31746;SDS011;18319;48.974;8.462;2023-04-24T00:30:19;1.02;;;0.40;;
31746;SDS011;18319;48.974;8.462;2023-04-24T00:32:46;0.50;;;0.50;;
31746;SDS011;18319;48.974;8.462;2023-04-24T00:35:13;2.38;;;0.57;;
31746;SDS011;18319;48.974;8.462;2023-04-24T00:37:40;3.38;;;0.60;;
31746;SDS011;18319;48.974;8.462;2023-04-24T00:40:07;0.40;;;0.35;;
31746;SDS011;18319;48.974;8.462;2023-04-24T00:42:36;0.43;;;0.40;;
31746;SDS011;18319;48.974;8.462;2023-04-24T00:45:03;0.55;;;0.47;;
31746;SDS011;18319;48.974;8.462;2023-04-24T00:47:31;0.30;;;0.30;;
31746;SDS011;18319;48.974;8.462;2023-04-24T00:50:00;0.63;;;0.50;;
31746;SDS011;18319;48.974;8.462;2023-04-24T00:52:27;1.75;;;0.40;;
31746;SDS011;18319;48.974;8.462;2023-04-24T00:54:56;0.25;;;0.25;;
31746;SDS011;18319;48.974;8.462;2023-04-24T00:57:23;2.63;;;0.50;;
31746;SDS011;18319;48.974;8.462;2023-04-24T00:59:51;0.40;;;0.30;;
31746;SDS011;18319;48.974;8.462;2023-04-24T01:02:19;2.38;;;0.40;;
31746;SDS011;18319;48.974;8.462;2023-04-24T01:04:48;1.75;;;0.50;;
31746;SDS011;18319;48.974;8.462;2023-04-24T01:07:16;3.20;;;0.55;;
31746;SDS011;18319;48.974;8.462;2023-04-24T01:09:44;1.35;;;0.47;;
31746;SDS011;18319;48.974;8.462;2023-04-24T01:12:14;0.45;;;0.30;;
31746;SDS011;18319;48.974;8.462;2023-04-24T01:14:41;0.95;;;0.50;;
31746;SDS011;18319;48.974;8.462;2023-04-24T01:17:10;1.05;;;0.40;;
31746;SDS011;18319;48.974;8.462;2023-04-24T01:19:37;2.05;;;0.60;;
31746;SDS011;18319;48.974;8.462;2023-04-24T01:22:09;1.10;;;0.43;;
31746;SDS011;18319;48.974;8.462;2023-04-24T01:24:37;0.85;;;0.60;;
31746;SDS011;18319;48.974;8.462;2023-04-24T01:27:04;3.30;;;0.70;;
31746;SDS011;18319;48.974;8.462;2023-04-24T01:29:31;0.43;;;0.43;;
31746;SDS011;18319;48.974;8.462;2023-04-24T01:31:58;1.42;;;0.50;;
31746;SDS011;18319;48.974;8.462;2023-04-24T01:34:25;0.55;;;0.55;;
31746;SDS011;18319;48.974;8.462;2023-04-24T01:36:52;0.57;;;0.45;;
31746;SDS011;18319;48.974;8.462;2023-04-24T01:39:20;0.80;;;0.60;;
31746;SDS011;18319;48.974;8.462;2023-04-24T01:41:48;1.02;;;0.50;;
31746;SDS011;18319;48.974;8.462;2023-04-24T01:44:15;5.13;;;0.63;;
31746;SDS011;18319;48.974;8.462;2023-04-24T01:46:43;0.93;;;0.75;;
31746;SDS011;18319;48.974;8.462;2023-04-24T01:49:10;0.52;;;0.50;;
31746;SDS011;18319;48.974;8.462;2023-04-24T01:51:37;1.65;;;0.50;;
31746;SDS011;18319;48.974;8.462;2023-04-24T01:54:04;0.57;;;0.57;;
31746;SDS011;18319;48.974;8.462;2023-04-24T01:56:33;0.68;;;0.50;;
31746;SDS011;18319;48.974;8.462;2023-04-24T01:59:00;0.50;;;0.50;;
31746;SDS011;18319;48.974;8.462;2023-04-24T02:01:32;0.75;;;0.55;;
31746;SDS011;18319;48.974;8.462;2023-04-24T02:04:02;1.17;;;0.50;;
31746;SDS011;18319;48.974;8.462;2023-04-24T02:06:29;1.65;;;0.65;;
31746;SDS011;18319;48.974;8.462;2023-04-24T02:08:56;0.40;;;0.40;;
31746;SDS011;18319;48.974;8.462;2023-04-24T02:11:23;0.65;;;0.50;;
31746;SDS011;18319;48.974;8.462;2023-04-24T02:13:51;0.63;;;0.50;;
31746;SDS011;18319;48.974;8.462;2023-04-24T02:16:18;1.17;;;0.73;;
31746;SDS011;18319;48.974;8.462;2023-04-24T02:18:45;0.50;;;0.50;;
31746;SDS011;18319;48.974;8.462;2023-04-24T02:21:11;0.77;;;0.47;;
31746;SDS011;18319;48.974;8.462;2023-04-24T02:23:38;0.50;;;0.50;;
31746;SDS011;18319;48.974;8.462;2023-04-24T02:26:05;0.60;;;0.60;;
31746;SDS011;18319;48.974;8.462;2023-04-24T02:28:32;0.60;;;0.60;;
31746;SDS011;18319;48.974;8.462;2023-04-24T02:31:00;0.45;;;0.45;;
31746;SDS011;18319;48.974;8.462;2023-04-24T02:33:27;0.60;;;0.52;;
31746;SDS011;18319;48.974;8.462;2023-04-24T02:35:54;1.40;;;0.80;;
31746;SDS011;18319;48.974;8.462;2023-04-24T02:38:20;2.70;;;0.70;;
31746;SDS011;18319;48.974;8.462;2023-04-24T02:40:47;0.73;;;0.55;;
31746;SDS011;18319;48.974;8.462;2023-04-24T02:43:14;0.40;;;0.35;;
31746;SDS011;18319;48.974;8.462;2023-04-24T02:45:41;2.65;;;0.70;;
31746;SDS011;18319;48.974;8.462;2023-04-24T02:48:09;0.60;;;0.60;;
31746;SDS011;18319;48.974;8.462;2023-04-24T02:50:35;0.50;;;0.50;;
31746;SDS011;18319;48.974;8.462;2023-04-24T02:53:02;0.47;;;0.38;;
31746;SDS011;18319;48.974;8.462;2023-04-24T02:55:29;0.70;;;0.50;;
31746;SDS011;18319;48.974;8.462;2023-04-24T02:57:56;2.30;;;0.60;;
31746;SDS011;18319;48.974;8.462;2023-04-24T03:00:23;1.63;;;0.50;;
31746;SDS011;18319;48.974;8.462;2023-04-24T03:02:50;0.35;;;0.32;;
31746;SDS011;18319;48.974;8.462;2023-04-24T03:05:18;2.20;;;0.50;;
31746;SDS011;18319;48.974;8.462;2023-04-24T03:07:45;0.63;;;0.52;;
31746;SDS011;18319;48.974;8.462;2023-04-24T03:10:11;2.45;;;0.68;;
31746;SDS011;18319;48.974;8.462;2023-04-24T03:12:38;0.85;;;0.85;;
31746;SDS011;18319;48.974;8.462;2023-04-24T03:15:05;0.52;;;0.50;;
31746;SDS011;18319;48.974;8.462;2023-04-24T03:17:33;0.63;;;0.50;;
31746;SDS011;18319;48.974;8.462;2023-04-24T03:20:00;1.48;;;0.55;;
31746;SDS011;18319;48.974;8.462;2023-04-24T03:22:28;0.60;;;0.47;;
31746;SDS011;18319;48.974;8.462;2023-04-24T03:24:57;0.45;;;0.45;;
31746;SDS011;18319;48.974;8.462;2023-04-24T03:27:24;0.38;;;0.38;;
31746;SDS011;18319;48.974;8.462;2023-04-24T03:29:51;1.08;;;0.40;;
31746;SDS011;18319;48.974;8.462;2023-04-24T03:32:20;0.65;;;0.40;;
31746;SDS011;18319;48.974;8.462;2023-04-24T03:34:47;0.50;;;0.50;;
31746;SDS011;18319;48.974;8.462;2023-04-24T03:37:14;1.33;;;0.50;;
31746;SDS011;18319;48.974;8.462;2023-04-24T03:39:42;3.15;;;0.65;;
31746;SDS011;18319;48.974;8.462;2023-04-24T03:42:09;0.80;;;0.73;;
31746;SDS011;18319;48.974;8.462;2023-04-24T03:44:35;0.70;;;0.70;;
31746;SDS011;18319;48.974;8.462;2023-04-24T03:47:02;1.95;;;0.60;;
31746;SDS011;18319;48.974;8.462;2023-04-24T03:49:29;0.60;;;0.60;;
31746;SDS011;18319;48.974;8.462;2023-04-24T03:51:56;1.17;;;0.70;;
31746;SDS011;18319;48.974;8.462;2023-04-24T03:54:22;0.77;;;0.77;;
31746;SDS011;18319;48.974;8.462;2023-04-24T03:56:51;1.55;;;0.65;;
31746;SDS011;18319;48.974;8.462;2023-04-24T03:59:17;0.68;;;0.68;;
31746;SDS011;18319;48.974;8.462;2023-04-24T04:01:44;0.82;;;0.82;;
31746;SDS011;18319;48.974;8.462;2023-04-24T04:04:11;1.67;;;0.90;;
31746;SDS011;18319;48.974;8.462;2023-04-24T04:06:38;0.98;;;0.70;;
31746;SDS011;18319;48.974;8.462;2023-04-24T04:09:04;2.42;;;0.98;;
31746;SDS011;18319;48.974;8.462;2023-04-24T04:11:32;0.57;;;0.57;;
31746;SDS011;18319;48.974;8.462;2023-04-24T04:14:00;0.88;;;0.85;;
31746;SDS011;18319;48.974;8.462;2023-04-24T04:16:27;0.90;;;0.90;;
31746;SDS011;18319;48.974;8.462;2023-04-24T04:18:53;1.40;;;0.80;;
31746;SDS011;18319;48.974;8.462;2023-04-24T04:21:21;0.70;;;0.70;;
31746;SDS011;18319;48.974;8.462;2023-04-24T04:23:48;0.80;;;0.80;;
31746;SDS011;18319;48.974;8.462;2023-04-24T04:26:14;1.02;;;0.90;;
31746;SDS011;18319;48.974;8.462;2023-04-24T04:28:41;2.53;;;0.80;;
31746;SDS011;18319;48.974;8.462;2023-04-24T04:31:11;0.65;;;0.65;;
31746;SDS011;18319;48.974;8.462;2023-04-24T04:33:40;0.70;;;0.70;;
31746;SDS011;18319;48.974;8.462;2023-04-24T04:36:06;1.08;;;0.95;;
31746;SDS011;18319;48.974;8.462;2023-04-24T04:38:33;1.00;;;1.00;;
31746;SDS011;18319;48.974;8.462;2023-04-24T04:41:03;1.88;;;0.90;;
31746;SDS011;18319;48.974;8.462;2023-04-24T04:43:30;0.93;;;0.93;;
31746;SDS011;18319;48.974;8.462;2023-04-24T04:45:59;1.27;;;1.15;;
31746;SDS011;18319;48.974;8.462;2023-04-24T04:48:29;3.13;;;1.57;;
31746;SDS011;18319;48.974;8.462;2023-04-24T04:50:56;1.40;;;1.30;;
31746;SDS011;18319;48.974;8.462;2023-04-24T04:53:23;1.00;;;1.00;;
31746;SDS011;18319;48.974;8.462;2023-04-24T04:55:50;1.40;;;1.30;;
31746;SDS011;18319;48.974;8.462;2023-04-24T04:58:17;1.50;;;1.40;;
31746;SDS011;18319;48.974;8.462;2023-04-24T05:00:44;2.08;;;1.50;;
31746;SDS011;18319;48.974;8.462;2023-04-24T05:03:11;1.13;;;1.02;;
31746;SDS011;18319;48.974;8.462;2023-04-24T05:05:39;1.85;;;1.25;;
31746;SDS011;18319;48.974;8.462;2023-04-24T05:08:06;1.30;;;1.20;;
31746;SDS011;18319;48.974;8.462;2023-04-24T05:10:33;1.52;;;1.42;;
31746;SDS011;18319;48.974;8.462;2023-04-24T05:13:01;1.65;;;1.55;;
31746;SDS011;18319;48.974;8.462;2023-04-24T05:15:28;1.60;;;1.50;;
31746;SDS011;18319;48.974;8.462;2023-04-24T05:17:55;1.90;;;1.40;;
31746;SDS011;18319;48.974;8.462;2023-04-24T05:20:22;2.85;;;1.40;;
31746;SDS011;18319;48.974;8.462;2023-04-24T05:22:51;1.55;;;1.45;;
31746;SDS011;18319;48.974;8.462;2023-04-24T05:25:17;1.70;;;1.60;;
31746;SDS011;18319;48.974;8.462;2023-04-24T05:27:44;2.20;;;2.00;;
31746;SDS011;18319;48.974;8.462;2023-04-24T05:30:11;1.73;;;1.53;;
31746;SDS011;18319;48.974;8.462;2023-04-24T05:32:39;1.85;;;1.60;;
31746;SDS011;18319;48.974;8.462;2023-04-24T05:35:06;3.20;;;1.92;;
31746;SDS011;18319;48.974;8.462;2023-04-24T05:37:33;1.48;;;1.40;;
31746;SDS011;18319;48.974;8.462;2023-04-24T05:40:01;1.80;;;1.60;;
31746;SDS011;18319;48.974;8.462;2023-04-24T05:42:30;1.60;;;1.50;;
31746;SDS011;18319;48.974;8.462;2023-04-24T05:44:57;1.42;;;1.33;;
31746;SDS011;18319;48.974;8.462;2023-04-24T05:47:23;1.17;;;1.10;;
31746;SDS011;18319;48.974;8.462;2023-04-24T05:49:51;1.60;;;1.50;;
31746;SDS011;18319;48.974;8.462;2023-04-24T05:52:18;1.50;;;1.40;;
31746;SDS011;18319;48.974;8.462;2023-04-24T05:54:45;1.42;;;1.33;;
31746;SDS011;18319;48.974;8.462;2023-04-24T05:57:13;1.80;;;1.70;;
31746;SDS011;18319;48.974;8.462;2023-04-24T05:59:40;2.83;;;1.25;;
31746;SDS011;18319;48.974;8.462;2023-04-24T06:02:07;2.15;;;1.30;;
31746;SDS011;18319;48.974;8.462;2023-04-24T06:04:33;1.58;;;1.48;;
31746;SDS011;18319;48.974;8.462;2023-04-24T06:07:00;2.72;;;1.33;;
31746;SDS011;18319;48.974;8.462;2023-04-24T06:09:27;1.38;;;1.30;;
31746;SDS011;18319;48.974;8.462;2023-04-24T06:11:54;1.27;;;1.02;;
31746;SDS011;18319;48.974;8.462;2023-04-24T06:14:22;3.72;;;1.33;;
31746;SDS011;18319;48.974;8.462;2023-04-24T06:16:49;1.42;;;1.35;;
31746;SDS011;18319;48.974;8.462;2023-04-24T06:19:16;1.27;;;1.27;;
31746;SDS011;18319;48.974;8.462;2023-04-24T06:21:43;3.63;;;1.70;;
31746;SDS011;18319;48.974;8.462;2023-04-24T06:24:10;2.17;;;1.20;;
31746;SDS011;18319;48.974;8.462;2023-04-24T06:26:37;2.92;;;1.55;;
31746;SDS011;18319;48.974;8.462;2023-04-24T06:29:03;1.23;;;1.13;;
31746;SDS011;18319;48.974;8.462;2023-04-24T06:31:33;1.33;;;1.30;;
31746;SDS011;18319;48.974;8.462;2023-04-24T06:34:02;1.83;;;1.73;;
31746;SDS011;18319;48.974;8.462;2023-04-24T06:36:29;1.40;;;1.30;;
31746;SDS011;18319;48.974;8.462;2023-04-24T06:38:56;2.25;;;1.35;;
31746;SDS011;18319;48.974;8.462;2023-04-24T06:41:23;2.67;;;1.58;;
31746;SDS011;18319;48.974;8.462;2023-04-24T06:43:50;1.48;;;1.38;;
31746;SDS011;18319;48.974;8.462;2023-04-24T06:46:16;1.40;;;1.30;;
31746;SDS011;18319;48.974;8.462;2023-04-24T06:48:45;2.33;;;1.58;;
31746;SDS011;18319;48.974;8.462;2023-04-24T06:51:11;2.22;;;2.03;;
31746;SDS011;18319;48.974;8.462;2023-04-24T06:53:38;1.42;;;1.20;;
31746;SDS011;18319;48.974;8.462;2023-04-24T06:56:05;1.13;;;1.02;;
31746;SDS011;18319;48.974;8.462;2023-04-24T06:58:32;1.83;;;1.73;;
31746;SDS011;18319;48.974;8.462;2023-04-24T07:00:58;3.60;;;1.90;;
31746;SDS011;18319;48.974;8.462;2023-04-24T07:03:25;0.95;;;0.95;;
31746;SDS011;18319;48.974;8.462;2023-04-24T07:05:53;1.40;;;1.30;;
31746;SDS011;18319;48.974;8.462;2023-04-24T07:08:21;1.45;;;1.35;;
31746;SDS011;18319;48.974;8.462;2023-04-24T07:10:49;1.73;;;1.27;;
31746;SDS011;18319;48.974;8.462;2023-04-24T07:13:16;1.70;;;1.33;;
31746;SDS011;18319;48.974;8.462;2023-04-24T07:15:43;1.10;;;1.10;;
31746;SDS011;18319;48.974;8.462;2023-04-24T07:18:10;1.20;;;1.20;;
31746;SDS011;18319;48.974;8.462;2023-04-24T07:20:37;1.20;;;1.08;;
31746;SDS011;18319;48.974;8.462;2023-04-24T07:23:05;2.65;;;1.30;;
31746;SDS011;18319;48.974;8.462;2023-04-24T07:25:32;1.13;;;1.13;;
31746;SDS011;18319;48.974;8.462;2023-04-24T07:27:59;1.38;;;1.27;;
31746;SDS011;18319;48.974;8.462;2023-04-24T07:30:26;1.15;;;1.15;;
31746;SDS011;18319;48.974;8.462;2023-04-24T07:32:53;1.55;;;1.10;;
31746;SDS011;18319;48.974;8.462;2023-04-24T07:35:20;1.73;;;1.38;;
31746;SDS011;18319;48.974;8.462;2023-04-24T07:37:47;1.10;;;0.93;;
31746;SDS011;18319;48.974;8.462;2023-04-24T07:40:15;1.40;;;1.05;;
31746;SDS011;18319;48.974;8.462;2023-04-24T07:42:42;1.15;;;1.10;;
31746;SDS011;18319;48.974;8.462;2023-04-24T07:45:09;1.90;;;1.08;;
31746;SDS011;18319;48.974;8.462;2023-04-24T07:47:36;0.93;;;0.70;;
31746;SDS011;18319;48.974;8.462;2023-04-24T07:50:05;1.90;;;1.10;;
31746;SDS011;18319;48.974;8.462;2023-04-24T07:52:32;0.82;;;0.80;;
31746;SDS011;18319;48.974;8.462;2023-04-24T07:54:59;3.15;;;0.98;;
31746;SDS011;18319;48.974;8.462;2023-04-24T07:57:28;2.33;;;1.00;;
31746;SDS011;18319;48.974;8.462;2023-04-24T07:59:55;1.02;;;0.90;;
31746;SDS011;18319;48.974;8.462;2023-04-24T08:02:22;1.02;;;0.90;;
31746;SDS011;18319;48.974;8.462;2023-04-24T08:04:51;3.25;;;1.10;;
31746;SDS011;18319;48.974;8.462;2023-04-24T08:07:18;1.10;;;0.98;;
31746;SDS011;18319;48.974;8.462;2023-04-24T08:09:45;4.45;;;1.20;;
31746;SDS011;18319;48.974;8.462;2023-04-24T08:12:12;2.50;;;1.00;;
31746;SDS011;18319;48.974;8.462;2023-04-24T08:14:40;2.17;;;1.00;;
31746;SDS011;18319;48.974;8.462;2023-04-24T08:17:07;0.95;;;0.93;;
31746;SDS011;18319;48.974;8.462;2023-04-24T08:19:34;1.55;;;1.02;;
31746;SDS011;18319;48.974;8.462;2023-04-24T08:22:00;1.40;;;0.90;;
31746;SDS011;18319;48.974;8.462;2023-04-24T08:24:29;1.25;;;1.20;;
31746;SDS011;18319;48.974;8.462;2023-04-24T08:26:55;0.90;;;0.90;;
31746;SDS011;18319;48.974;8.462;2023-04-24T08:29:23;1.70;;;0.90;;
31746;SDS011;18319;48.974;8.462;2023-04-24T08:31:51;1.00;;;1.00;;
31746;SDS011;18319;48.974;8.462;2023-04-24T08:34:20;2.47;;;0.85;;
31746;SDS011;18319;48.974;8.462;2023-04-24T08:36:46;2.22;;;0.80;;
31746;SDS011;18319;48.974;8.462;2023-04-24T08:39:14;3.13;;;1.00;;
31746;SDS011;18319;48.974;8.462;2023-04-24T08:41:41;0.90;;;0.90;;
31746;SDS011;18319;48.974;8.462;2023-04-24T08:44:10;1.73;;;0.90;;
31746;SDS011;18319;48.974;8.462;2023-04-24T08:46:40;1.08;;;1.08;;
31746;SDS011;18319;48.974;8.462;2023-04-24T08:49:10;1.00;;;0.90;;
31746;SDS011;18319;48.974;8.462;2023-04-24T08:51:37;1.80;;;1.10;;
31746;SDS011;18319;48.974;8.462;2023-04-24T08:54:06;1.73;;;0.93;;
31746;SDS011;18319;48.974;8.462;2023-04-24T08:56:34;2.00;;;1.05;;
31746;SDS011;18319;48.974;8.462;2023-04-24T08:59:05;3.40;;;1.20;;
31746;SDS011;18319;48.974;8.462;2023-04-24T09:01:32;1.75;;;0.77;;
31746;SDS011;18319;48.974;8.462;2023-04-24T09:04:01;1.30;;;0.95;;
31746;SDS011;18319;48.974;8.462;2023-04-24T09:06:30;1.23;;;0.88;;
31746;SDS011;18319;48.974;8.462;2023-04-24T09:08:59;2.30;;;0.90;;
31746;SDS011;18319;48.974;8.462;2023-04-24T09:11:28;1.42;;;0.95;;
31746;SDS011;18319;48.974;8.462;2023-04-24T09:13:56;2.83;;;1.20;;
31746;SDS011;18319;48.974;8.462;2023-04-24T09:16:24;0.73;;;0.73;;
31746;SDS011;18319;48.974;8.462;2023-04-24T09:18:52;1.05;;;0.93;;
31746;SDS011;18319;48.974;8.462;2023-04-24T09:21:20;1.42;;;1.00;;
31746;SDS011;18319;48.974;8.462;2023-04-24T09:23:48;2.15;;;1.15;;
31746;SDS011;18319;48.974;8.462;2023-04-24T09:26:24;1.35;;;1.00;;
31746;SDS011;18319;48.974;8.462;2023-04-24T09:28:50;1.30;;;1.23;;
31746;SDS011;18319;48.974;8.462;2023-04-24T09:31:18;2.15;;;0.95;;
31746;SDS011;18319;48.974;8.462;2023-04-24T09:33:53;1.30;;;1.10;;
31746;SDS011;18319;48.974;8.462;2023-04-24T09:36:26;1.00;;;1.00;;
31746;SDS011;18319;48.974;8.462;2023-04-24T09:38:58;1.52;;;1.30;;
31746;SDS011;18319;48.974;8.462;2023-04-24T09:41:26;1.58;;;1.17;;
31746;SDS011;18319;48.974;8.462;2023-04-24T09:43:54;1.58;;;1.45;;
31746;SDS011;18319;48.974;8.462;2023-04-24T09:46:21;1.17;;;1.10;;
31746;SDS011;18319;48.974;8.462;2023-04-24T09:48:55;0.95;;;0.95;;
31746;SDS011;18319;48.974;8.462;2023-04-24T09:51:32;3.83;;;1.27;;
31746;SDS011;18319;48.974;8.462;2023-04-24T09:54:02;1.38;;;1.30;;
31746;SDS011;18319;48.974;8.462;2023-04-24T09:56:32;5.25;;;1.48;;
31746;SDS011;18319;48.974;8.462;2023-04-24T09:59:06;1.55;;;1.45;;
31746;SDS011;18319;48.974;8.462;2023-04-24T10:01:33;1.52;;;1.40;;
31746;SDS011;18319;48.974;8.462;2023-04-24T10:04:01;2.45;;;1.77;;
31746;SDS011;18319;48.974;8.462;2023-04-24T10:06:34;1.80;;;1.70;;
31746;SDS011;18319;48.974;8.462;2023-04-24T10:09:02;1.85;;;1.00;;
31746;SDS011;18319;48.974;8.462;2023-04-24T10:11:29;4.07;;;1.52;;
31746;SDS011;18319;48.974;8.462;2023-04-24T10:13:57;2.60;;;1.20;;
31746;SDS011;18319;48.974;8.462;2023-04-24T10:16:25;1.15;;;1.10;;
31746;SDS011;18319;48.974;8.462;2023-04-24T10:18:53;0.93;;;0.93;;
31746;SDS011;18319;48.974;8.462;2023-04-24T10:21:21;1.00;;;1.00;;
31746;SDS011;18319;48.974;8.462;2023-04-24T10:23:48;1.80;;;0.95;;
31746;SDS011;18319;48.974;8.462;2023-04-24T10:26:17;1.55;;;1.00;;
31746;SDS011;18319;48.974;8.462;2023-04-24T10:28:45;1.52;;;1.30;;
31746;SDS011;18319;48.974;8.462;2023-04-24T10:31:12;2.88;;;1.17;;
31746;SDS011;18319;48.974;8.462;2023-04-24T10:33:40;1.13;;;1.05;;
31746;SDS011;18319;48.974;8.462;2023-04-24T10:36:08;2.05;;;1.48;;
31746;SDS011;18319;48.974;8.462;2023-04-24T10:38:37;1.52;;;1.38;;
31746;SDS011;18319;48.974;8.462;2023-04-24T10:41:06;1.50;;;1.40;;
31746;SDS011;18319;48.974;8.462;2023-04-24T10:43:36;1.17;;;1.08;;
31746;SDS011;18319;48.974;8.462;2023-04-24T10:46:03;1.73;;;1.63;;
31746;SDS011;18319;48.974;8.462;2023-04-24T10:48:31;1.30;;;1.20;;
31746;SDS011;18319;48.974;8.462;2023-04-24T10:50:58;1.83;;;1.42;;
31746;SDS011;18319;48.974;8.462;2023-04-24T10:53:27;1.48;;;1.48;;
31746;SDS011;18319;48.974;8.462;2023-04-24T10:55:57;1.70;;;1.60;;
31746;SDS011;18319;48.974;8.462;2023-04-24T10:58:26;1.52;;;1.40;;
31746;SDS011;18319;48.974;8.462;2023-04-24T11:01:05;2.13;;;1.48;;
31746;SDS011;18319;48.974;8.462;2023-04-24T11:03:32;1.85;;;1.42;;
31746;SDS011;18319;48.974;8.462;2023-04-24T11:06:01;1.25;;;1.13;;
31746;SDS011;18319;48.974;8.462;2023-04-24T11:08:30;2.58;;;1.90;;
31746;SDS011;18319;48.974;8.462;2023-04-24T11:11:02;1.60;;;1.50;;
31746;SDS011;18319;48.974;8.462;2023-04-24T11:16:38;2.05;;;1.40;;
31746;SDS011;18319;48.974;8.462;2023-04-24T11:19:10;1.48;;;1.42;;
31746;SDS011;18319;48.974;8.462;2023-04-24T11:21:44;1.70;;;1.60;;
31746;SDS011;18319;48.974;8.462;2023-04-24T11:24:26;1.63;;;1.52;;
31746;SDS011;18319;48.974;8.462;2023-04-24T11:26:58;3.05;;;1.80;;
31746;SDS011;18319;48.974;8.462;2023-04-24T11:29:46;1.65;;;1.55;;
31746;SDS011;18319;48.974;8.462;2023-04-24T11:32:19;1.92;;;1.83;;
31746;SDS011;18319;48.974;8.462;2023-04-24T11:34:51;2.20;;;1.90;;
31746;SDS011;18319;48.974;8.462;2023-04-24T11:37:19;2.33;;;2.22;;
31746;SDS011;18319;48.974;8.462;2023-04-24T11:39:46;4.20;;;2.00;;
31746;SDS011;18319;48.974;8.462;2023-04-24T11:42:14;6.75;;;2.78;;
31746;SDS011;18319;48.974;8.462;2023-04-24T11:44:41;3.05;;;2.85;;
31746;SDS011;18319;48.974;8.462;2023-04-24T11:47:10;5.25;;;2.83;;
31746;SDS011;18319;48.974;8.462;2023-04-24T11:49:37;5.22;;;3.53;;
31746;SDS011;18319;48.974;8.462;2023-04-24T11:52:04;4.03;;;3.72;;
31746;SDS011;18319;48.974;8.462;2023-04-24T11:54:32;4.13;;;3.83;;
31746;SDS011;18319;48.974;8.462;2023-04-24T11:56:58;3.28;;;2.97;;
31746;SDS011;18319;48.974;8.462;2023-04-24T11:59:29;4.35;;;3.28;;
31746;SDS011;18319;48.974;8.462;2023-04-24T12:02:01;3.08;;;2.78;;
31746;SDS011;18319;48.974;8.462;2023-04-24T12:04:37;3.10;;;2.90;;
31746;SDS011;18319;48.974;8.462;2023-04-24T12:07:05;4.25;;;3.38;;
31746;SDS011;18319;48.974;8.462;2023-04-24T12:09:43;3.33;;;3.05;;
31746;SDS011;18319;48.974;8.462;2023-04-24T12:12:11;2.42;;;2.28;;
31746;SDS011;18319;48.974;8.462;2023-04-24T12:14:47;2.70;;;2.50;;
31746;SDS011;18319;48.974;8.462;2023-04-24T12:17:15;3.15;;;2.70;;
31746;SDS011;18319;48.974;8.462;2023-04-24T12:19:47;2.45;;;2.35;;
31746;SDS011;18319;48.974;8.462;2023-04-24T12:22:15;7.75;;;3.95;;
31746;SDS011;18319;48.974;8.462;2023-04-24T12:25:01;3.42;;;3.13;;
31746;SDS011;18319;48.974;8.462;2023-04-24T12:27:29;2.85;;;2.65;;
31746;SDS011;18319;48.974;8.462;2023-04-24T12:29:58;3.08;;;2.85;;
31746;SDS011;18319;48.974;8.462;2023-04-24T12:32:25;4.38;;;2.78;;
31746;SDS011;18319;48.974;8.462;2023-04-24T12:34:54;2.70;;;2.60;;
31746;SDS011;18319;48.974;8.462;2023-04-24T12:37:22;2.95;;;2.63;;
31746;SDS011;18319;48.974;8.462;2023-04-24T12:40:00;2.22;;;2.13;;
31746;SDS011;18319;48.974;8.462;2023-04-24T12:42:29;2.75;;;2.33;;
31746;SDS011;18319;48.974;8.462;2023-04-24T12:44:56;2.17;;;2.08;;
31746;SDS011;18319;48.974;8.462;2023-04-24T12:47:24;2.65;;;2.53;;
31746;SDS011;18319;48.974;8.462;2023-04-24T12:49:51;2.72;;;2.53;;
31746;SDS011;18319;48.974;8.462;2023-04-24T12:52:20;4.60;;;2.13;;
31746;SDS011;18319;48.974;8.462;2023-04-24T12:54:48;2.53;;;2.33;;
31746;SDS011;18319;48.974;8.462;2023-04-24T12:57:15;2.13;;;2.03;;
31746;SDS011;18319;48.974;8.462;2023-04-24T12:59:42;2.15;;;1.92;;
31746;SDS011;18319;48.974;8.462;2023-04-24T13:02:09;2.33;;;2.13;;
31746;SDS011;18319;48.974;8.462;2023-04-24T13:04:36;1.80;;;1.70;;
31746;SDS011;18319;48.974;8.462;2023-04-24T13:07:04;2.10;;;2.00;;
31746;SDS011;18319;48.974;8.462;2023-04-24T13:09:34;4.80;;;1.77;;
31746;SDS011;18319;48.974;8.462;2023-04-24T13:12:01;2.90;;;2.10;;
31746;SDS011;18319;48.974;8.462;2023-04-24T13:14:28;2.25;;;2.05;;
31746;SDS011;18319;48.974;8.462;2023-04-24T13:16:55;2.17;;;1.92;;
31746;SDS011;18319;48.974;8.462;2023-04-24T13:19:23;1.95;;;1.85;;
31746;SDS011;18319;48.974;8.462;2023-04-24T13:21:50;2.30;;;1.88;;
31746;SDS011;18319;48.974;8.462;2023-04-24T13:24:19;3.25;;;1.90;;
31746;SDS011;18319;48.974;8.462;2023-04-24T13:26:45;2.40;;;2.20;;
31746;SDS011;18319;48.974;8.462;2023-04-24T13:29:12;1.80;;;1.70;;
31746;SDS011;18319;48.974;8.462;2023-04-24T13:31:39;2.00;;;1.90;;
31746;SDS011;18319;48.974;8.462;2023-04-24T13:34:06;3.40;;;2.25;;
31746;SDS011;18319;48.974;8.462;2023-04-24T13:36:33;2.30;;;2.10;;
31746;SDS011;18319;48.974;8.462;2023-04-24T13:39:00;2.53;;;2.30;;
31746;SDS011;18319;48.974;8.462;2023-04-24T13:41:29;2.97;;;2.80;;
31746;SDS011;18319;48.974;8.462;2023-04-24T13:43:56;2.22;;;2.13;;
31746;SDS011;18319;48.974;8.462;2023-04-24T13:46:23;2.97;;;2.05;;
31746;SDS011;18319;48.974;8.462;2023-04-24T13:48:50;1.90;;;1.80;;
31746;SDS011;18319;48.974;8.462;2023-04-24T13:51:17;2.20;;;2.03;;
31746;SDS011;18319;48.974;8.462;2023-04-24T13:53:44;3.30;;;2.40;;
31746;SDS011;18319;48.974;8.462;2023-04-24T13:56:12;2.88;;;2.00;;
31746;SDS011;18319;48.974;8.462;2023-04-24T13:58:40;1.73;;;1.63;;
31746;SDS011;18319;48.974;8.462;2023-04-24T14:01:07;1.65;;;1.55;;
31746;SDS011;18319;48.974;8.462;2023-04-24T14:03:34;2.58;;;1.50;;
31746;SDS011;18319;48.974;8.462;2023-04-24T14:06:03;2.45;;;2.10;;
31746;SDS011;18319;48.974;8.462;2023-04-24T14:08:31;1.88;;;1.77;;
31746;SDS011;18319;48.974;8.462;2023-04-24T14:10:58;1.20;;;1.10;;
31746;SDS011;18319;48.974;8.462;2023-04-24T14:13:25;1.38;;;1.30;;
31746;SDS011;18319;48.974;8.462;2023-04-24T14:15:53;1.52;;;1.45;;
31746;SDS011;18319;48.974;8.462;2023-04-24T14:18:20;4.15;;;1.67;;
31746;SDS011;18319;48.974;8.462;2023-04-24T14:20:47;1.30;;;1.27;;
31746;SDS011;18319;48.974;8.462;2023-04-24T14:23:14;3.08;;;1.50;;
31746;SDS011;18319;48.974;8.462;2023-04-24T14:25:41;3.30;;;1.52;;
31746;SDS011;18319;48.974;8.462;2023-04-24T14:28:08;1.65;;;1.55;;
31746;SDS011;18319;48.974;8.462;2023-04-24T14:30:35;1.85;;;1.75;;
31746;SDS011;18319;48.974;8.462;2023-04-24T14:33:03;1.90;;;1.80;;
31746;SDS011;18319;48.974;8.462;2023-04-24T14:35:30;1.42;;;1.33;;
31746;SDS011;18319;48.974;8.462;2023-04-24T14:37:59;1.83;;;1.73;;
31746;SDS011;18319;48.974;8.462;2023-04-24T14:40:25;1.77;;;1.23;;
31746;SDS011;18319;48.974;8.462;2023-04-24T14:42:52;2.47;;;1.25;;
31746;SDS011;18319;48.974;8.462;2023-04-24T14:45:19;1.15;;;1.10;;
31746;SDS011;18319;48.974;8.462;2023-04-24T14:47:46;1.05;;;1.05;;
31746;SDS011;18319;48.974;8.462;2023-04-24T14:50:14;0.90;;;0.90;;
31746;SDS011;18319;48.974;8.462;2023-04-24T14:52:41;1.08;;;1.08;;
31746;SDS011;18319;48.974;8.462;2023-04-24T14:55:08;2.50;;;1.30;;